Time;durP1;ratioP1;P1;durP2;ratioP2;P2;SDS_P1;SDS_P2;PMS_P1;PMS_P2;Temp;Humidity;BMP_temperature;BMP_pressure;BME280_temperature;BME280_humidity;BME280_pressure;Samples;Min_cycle;Max_cycle;Signal;HPM_P1;HPM_P2
2023/03/20 00:02:24;;;;;;;26.48;14.70;;;10.60;99.90;;;10.83;86.11;101800.28;4994988;28;20046;-67
2023/03/20 00:04:52;;;;;;;24.05;15.15;;;10.60;99.90;;;10.82;85.97;101809.06;4996215;28;20057;-67
2023/03/20 00:07:21;;;;;;;24.38;13.50;;;10.50;99.90;;;10.79;85.93;101814.34;4996040;28;20484;-67
2023/03/20 00:09:51;;;;;;;24.95;14.15;;;10.50;99.90;;;10.70;85.83;101796.59;4996095;28;20416;-67
2023/03/20 00:12:24;;;;;;;29.33;14.00;;;10.50;99.90;;;10.78;85.56;101823.19;4996086;28;20073;-67
2023/03/20 00:14:53;;;;;;;25.45;12.70;;;10.40;99.90;;;10.79;85.55;101835.53;4994888;28;20053;-67
2023/03/20 00:17:21;;;;;;;22.05;13.40;;;10.40;99.90;;;10.75;85.64;101836.34;4996217;28;20456;-67
2023/03/20 00:19:50;;;;;;;24.25;13.63;;;10.40;99.90;;;10.74;85.33;101832.81;4995889;28;20077;-67
2023/03/20 00:22:18;;;;;;;22.20;13.13;;;10.40;99.90;;;10.73;85.24;101844.28;4994576;28;20052;-67
2023/03/20 00:24:47;;;;;;;22.75;13.50;;;10.40;99.90;;;10.73;84.89;101856.63;4996039;28;20456;-67
2023/03/20 00:27:18;;;;;;;23.88;13.73;;;10.40;99.90;;;10.72;85.28;101846.94;4995811;28;20137;-68
2023/03/20 00:29:47;;;;;;;22.98;12.38;;;10.40;99.90;;;10.65;84.86;101829.19;4995888;28;20039;-68
2023/03/20 00:32:17;;;;;;;27.10;14.13;;;10.40;99.90;;;10.63;84.90;101812.41;4995669;28;20039;-67
2023/03/20 00:34:45;;;;;;;23.95;13.60;;;10.40;99.90;;;10.65;84.98;101816.84;4995577;28;20081;-67
2023/03/20 00:37:13;;;;;;;22.13;12.77;;;10.40;99.90;;;10.59;84.96;101807.97;4995746;28;20125;-67
2023/03/20 00:39:42;;;;;;;26.45;13.38;;;10.40;99.90;;;10.61;84.97;101822.09;4994348;28;20054;-67
2023/03/20 00:42:20;;;;;;;22.35;12.55;;;10.30;99.90;;;10.62;84.85;101821.22;4993270;28;20050;-67
2023/03/20 00:44:52;;;;;;;23.02;12.23;;;10.30;99.90;;;10.67;84.83;101815.13;4994193;28;20053;-68
2023/03/20 00:47:25;;;;;;;20.20;12.48;;;10.40;99.90;;;10.67;84.46;101808.94;4994281;28;20105;-67
2023/03/20 00:49:56;;;;;;;22.80;12.60;;;10.40;99.90;;;10.63;84.47;101796.53;4995636;28;20395;-68
2023/03/20 00:52:26;;;;;;;23.42;13.40;;;10.40;99.90;;;10.57;84.46;101788.53;4994243;28;20539;-67
2023/03/20 00:54:54;;;;;;;24.20;13.75;;;10.30;99.90;;;10.55;84.67;101785.88;4995131;28;20061;-67
2023/03/20 00:57:29;;;;;;;26.35;13.82;;;10.30;99.90;;;10.56;84.89;101785.03;4995244;28;20502;-68
2023/03/20 01:00:03;;;;;;;23.52;14.00;;;10.30;99.90;;;10.55;84.85;101788.53;4995506;28;20050;-67
2023/03/20 01:02:32;;;;;;;24.77;14.30;;;10.30;99.90;;;10.54;84.92;101786.75;4994036;28;20057;-67
2023/03/20 01:05:02;;;;;;;24.33;14.38;;;10.30;99.90;;;10.32;85.14;101753.00;4995458;28;20503;-67
2023/03/20 01:07:31;;;;;;;26.70;14.75;;;10.30;99.90;;;10.52;85.10;101790.25;4993722;28;20046;-67
2023/03/20 01:09:59;;;;;;;25.20;14.77;;;10.30;99.90;;;10.36;85.23;101791.84;4994906;28;20129;-67
2023/03/20 01:12:29;;;;;;;31.35;14.25;;;10.20;99.90;;;10.56;85.18;101798.25;4995206;28;20053;-68
2023/03/20 01:14:58;;;;;;;26.27;14.27;;;10.20;99.90;;;10.48;85.04;101825.47;4993717;28;20046;-67
2023/03/20 01:17:28;;;;;;;24.55;14.98;;;10.20;99.90;;;10.52;85.35;101811.41;4994849;28;20495;-67
2023/03/20 01:19:57;;;;;;;24.30;14.82;;;10.30;99.90;;;10.62;85.21;101831.81;4994838;28;20093;-67
2023/03/20 01:22:25;;;;;;;25.23;14.43;;;10.30;99.90;;;10.53;85.21;101837.88;4994762;28;20128;-67
2023/03/20 01:24:54;;;;;;;23.48;14.15;;;10.20;99.90;;;10.55;85.18;101840.56;4993386;28;20050;-67
2023/03/20 01:27:22;;;;;;;25.10;14.65;;;10.20;99.90;;;10.35;85.43;101820.94;4994802;28;20042;-67
2023/03/20 01:29:52;;;;;;;24.75;14.13;;;10.20;99.90;;;10.48;85.37;101854.56;4993443;28;20507;-67
2023/03/20 01:32:20;;;;;;;24.87;13.10;;;10.20;99.90;;;10.55;85.20;101859.94;4993408;28;20054;-67
2023/03/20 01:34:51;;;;;;;25.55;13.95;;;10.20;99.90;;;10.60;84.91;101849.44;4993285;28;20302;-67
2023/03/20 01:37:26;;;;;;;23.92;13.88;;;10.20;99.90;;;10.57;85.09;101849.38;4993418;28;20153;-68
2023/03/20 01:39:58;;;;;;;32.97;13.88;;;10.30;99.90;;;10.58;85.02;101838.84;4993312;28;20069;-68
2023/03/20 01:42:27;;;;;;;23.80;13.73;;;10.30;99.90;;;10.58;84.93;101840.59;4993139;28;20058;-68
2023/03/20 01:44:57;;;;;;;24.45;14.07;;;10.30;99.90;;;10.59;85.22;101839.69;4993079;28;20073;-67
2023/03/20 01:47:27;;;;;;;21.52;12.93;;;10.30;99.90;;;10.60;85.27;101833.56;4992799;28;20463;-67
2023/03/20 01:50:27;;;;;;;24.33;13.75;;;10.30;99.90;;;10.53;85.36;101848.47;4993241;28;20070;-67
2023/03/20 01:53:17;;;;;;;24.70;14.18;;;10.30;99.90;;;10.51;85.66;101826.38;4992483;28;20050;-67
2023/03/20 01:55:54;;;;;;;20.15;13.10;;;10.20;99.90;;;10.53;85.47;101821.16;4992798;28;20412;-67
2023/03/20 01:58:31;;;;;;;24.80;13.30;;;10.20;99.90;;;10.57;85.54;101829.09;4992761;28;20570;-67
2023/03/20 02:01:02;;;;;;;26.50;13.55;;;10.30;99.90;;;10.49;85.40;101804.31;4992925;28;20054;-67
2023/03/20 02:03:31;;;;;;;22.35;13.13;;;10.30;99.90;;;10.53;85.59;101810.56;4992848;28;20058;-68
2023/03/20 02:06:00;;;;;;;24.30;13.87;;;10.30;99.90;;;10.17;85.27;101729.06;4994070;28;20050;-67
2023/03/20 02:08:51;;;;;;;24.15;14.77;;;10.30;99.90;;;10.57;85.38;101801.75;4993970;28;20463;-68
2023/03/20 02:11:23;;;;;;;23.48;14.85;;;10.30;99.90;;;10.55;85.16;101795.59;4992808;28;20503;-67
2023/03/20 02:13:55;;;;;;;24.02;14.57;;;10.30;99.90;;;9.99;84.95;101699.72;5009026;28;20550;-67
2023/03/20 02:16:28;;;;;;;22.48;15.45;;;10.30;99.90;;;10.57;85.19;101794.72;4992505;28;20488;-67
2023/03/20 02:19:40;;;;;;;27.08;16.20;;;10.30;99.90;;;10.53;85.27;101782.31;4992386;28;20050;-67
2023/03/20 02:22:43;;;;;;;25.50;16.17;;;10.30;99.90;;;10.46;84.93;101780.50;4992515;28;20385;-67
2023/03/20 02:26:00;;;;;;;26.20;16.05;;;10.30;99.90;;;10.47;84.71;101774.31;4992216;28;20499;-67
2023/03/20 02:29:12;;;;;;;24.42;17.42;;;10.20;99.90;;;10.43;84.32;101766.38;4992302;28;20084;-67
2023/03/20 02:32:28;;;;;;;24.80;17.20;;;10.20;99.90;;;10.43;84.12;101776.94;4993642;28;20046;-67
2023/03/20 02:35:38;;;;;;;29.35;16.55;;;10.20;99.90;;;10.31;84.05;101755.66;4993613;28;20668;-67
2023/03/20 02:39:06;;;;;;;23.73;16.13;;;10.20;99.90;;;10.41;84.01;101776.03;4992397;28;20054;-67
2023/03/20 02:41:42;;;;;;;25.05;16.27;;;10.10;99.90;;;10.42;84.18;101775.16;4983934;28;20519;-67
2023/03/20 02:44:19;;;;;;;25.35;15.50;;;10.20;99.90;;;10.42;83.94;101775.16;4992094;28;20054;-67
2023/03/20 02:46:57;;;;;;;25.10;16.02;;;10.20;99.90;;;10.40;84.22;101779.53;4992192;28;20057;-67
2023/03/20 02:49:49;;;;;;;21.73;16.27;;;10.10;99.90;;;10.46;84.31;101783.16;4992269;28;20105;-68
2023/03/20 02:52:25;;;;;;;26.63;15.35;;;10.20;99.90;;;10.49;84.23;101780.53;4991889;28;20523;-67
2023/03/20 02:55:09;;;;;;;24.75;15.95;;;10.20;99.90;;;10.47;84.29;101778.75;4992996;28;20070;-67
2023/03/20 02:57:49;;;;;;;24.63;15.65;;;10.20;99.90;;;10.45;84.77;101775.19;4992114;28;20058;-67
2023/03/20 03:00:28;;;;;;;25.98;16.60;;;10.10;99.90;;;10.47;84.75;101768.19;4991991;28;20050;-67
2023/03/20 03:03:06;;;;;;;23.75;15.40;;;10.20;99.90;;;10.49;84.95;101762.00;4993215;28;20511;-67
2023/03/20 03:05:41;;;;;;;24.50;15.13;;;10.20;99.90;;;10.51;84.99;101757.63;4995343;28;20039;-68
2023/03/20 03:08:13;;;;;;;25.90;15.55;;;10.30;99.90;;;10.41;85.06;101750.50;4997173;28;20546;-67
2023/03/20 03:10:47;;;;;;;25.33;15.13;;;10.20;99.90;;;10.44;85.27;101746.97;4995994;28;20149;-67
2023/03/20 03:13:22;;;;;;;25.77;15.38;;;10.20;99.90;;;10.44;85.25;101749.59;4995867;28;20057;-67
2023/03/20 03:15:55;;;;;;;23.50;15.52;;;10.20;99.90;;;10.46;85.40;101753.16;4996044;28;20055;-68
2023/03/20 03:18:27;;;;;;;21.40;15.05;;;10.20;99.90;;;10.53;85.24;101745.28;4995900;28;20097;-68
2023/03/20 03:20:58;;;;;;;21.98;14.77;;;10.20;99.90;;;10.30;85.34;101712.44;4995782;28;20042;-67
2023/03/20 03:23:31;;;;;;;22.65;15.20;;;10.20;99.90;;;10.45;85.48;101744.31;4995695;28;20084;-67
2023/03/20 03:26:04;;;;;;;23.83;15.00;;;10.20;99.90;;;10.41;85.49;101739.91;4995898;28;20401;-68
2023/03/20 03:28:37;;;;;;;21.67;14.00;;;10.20;99.90;;;10.32;85.58;101729.22;4995682;28;20042;-67
2023/03/20 03:31:09;;;;;;;26.63;15.15;;;10.10;99.90;;;10.32;85.94;101728.31;4996991;28;20455;-68
2023/03/20 03:33:40;;;;;;;21.95;14.68;;;10.10;99.90;;;10.27;85.96;101722.09;4996859;28;20043;-68
2023/03/20 03:36:16;;;;;;;29.05;15.40;;;10.00;99.90;;;10.32;86.25;101726.56;4995357;28;20050;-67
2023/03/20 03:38:54;;;;;;;25.42;15.02;;;10.10;99.90;;;10.27;86.56;101727.41;4996871;28;20050;-67
2023/03/20 03:41:30;;;;;;;23.98;15.50;;;10.10;99.90;;;10.22;86.58;101729.13;4996801;28;20069;-67
2023/03/20 03:44:09;;;;;;;23.77;14.73;;;10.00;99.90;;;10.13;86.75;101699.91;4995393;28;20050;-67
2023/03/20 03:46:42;;;;;;;29.60;16.35;;;10.00;99.90;;;10.26;86.84;101718.56;4995260;28;20053;-67
2023/03/20 03:49:19;;;;;;;24.55;14.93;;;10.00;99.90;;;10.23;86.64;101718.56;4995337;28;20054;-67
2023/03/20 03:51:54;;;;;;;24.83;14.02;;;10.00;99.90;;;10.20;86.81;101715.00;4996518;28;20053;-67
2023/03/20 03:54:26;;;;;;;28.27;15.40;;;10.00;99.90;;;10.01;86.76;101687.41;4996303;28;20415;-67
2023/03/20 03:57:25;;;;;;;29.52;16.38;;;9.90;99.90;;;10.10;87.44;101718.41;4977223;28;20062;-67
2023/03/20 03:59:56;;;;;;;23.75;15.27;;;9.80;99.90;;;10.00;87.98;101698.88;4995008;28;20050;-67
2023/03/20 04:02:25;;;;;;;26.20;15.63;;;9.80;99.90;;;9.96;87.86;101689.16;4995082;28;20045;-67
2023/03/20 04:04:55;;;;;;;23.85;15.52;;;9.80;99.90;;;10.00;87.96;101691.84;4996191;28;20046;-67
2023/03/20 04:07:27;;;;;;;23.55;15.80;;;9.80;99.90;;;9.97;88.00;101707.66;4995109;28;20464;-67
2023/03/20 04:09:56;;;;;;;28.88;16.60;;;9.80;99.90;;;9.99;88.74;101710.31;4996390;28;20096;-67
2023/03/20 04:12:35;;;;;;;25.20;15.55;;;9.80;99.90;;;10.04;88.59;101700.69;4996065;28;20452;-67
2023/03/20 04:15:07;;;;;;;23.45;16.30;;;9.90;99.90;;;10.09;88.28;101719.22;4994812;28;20141;-67
2023/03/20 04:17:36;;;;;;;28.85;15.32;;;9.80;99.90;;;10.04;88.19;101716.53;4995885;28;20077;-68
2023/03/20 04:20:06;;;;;;;20.95;14.65;;;9.80;99.90;;;10.08;88.57;101715.72;4994836;28;20474;-67
2023/03/20 04:22:36;;;;;;;25.02;15.77;;;9.80;99.90;;;10.14;88.26;101720.22;4994734;28;20058;-67
2023/03/20 04:25:10;;;;;;;25.73;15.73;;;9.90;99.90;;;9.92;88.41;101690.88;4994624;28;20105;-67
2023/03/20 04:27:40;;;;;;;27.90;15.48;;;9.80;99.90;;;10.06;88.76;101714.81;4994510;28;20559;-67
2023/03/20 04:30:17;;;;;;;25.42;14.68;;;9.80;99.90;;;9.92;88.94;101734.91;4994409;28;20086;-68
2023/03/20 04:33:09;;;;;;;33.38;16.10;;;9.70;99.90;;;10.01;89.03;101714.75;4976565;28;20086;-67
2023/03/20 04:35:58;;;;;;;25.65;14.65;;;9.80;99.90;;;9.99;89.47;101705.91;4995250;28;20407;-67
2023/03/20 04:38:26;;;;;;;29.02;16.42;;;9.80;99.90;;;9.97;89.21;101702.38;4994236;28;20463;-67
2023/03/20 04:40:55;;;;;;;29.88;15.18;;;9.70;99.90;;;9.94;89.05;101696.16;4994502;28;20077;-67
2023/03/20 04:43:25;;;;;;;29.02;15.55;;;9.70;99.90;;;9.97;89.34;101694.44;4995686;28;20050;-67
2023/03/20 04:45:54;;;;;;;24.90;14.93;;;9.70;99.90;;;9.99;89.34;101699.72;4994353;28;20057;-67
2023/03/20 04:48:22;;;;;;;31.55;16.48;;;9.70;99.90;;;9.98;89.50;101688.31;4994123;28;20152;-67
2023/03/20 04:50:51;;;;;;;31.27;15.13;;;9.70;99.90;;;10.02;89.26;101679.53;4994158;28;20722;-67
2023/03/20 04:53:25;;;;;;;28.33;15.68;;;9.70;99.90;;;9.98;89.25;101685.66;4995454;28;20463;-67
2023/03/20 04:55:55;;;;;;;26.50;15.00;;;9.70;99.90;;;9.91;89.78;101681.16;4994189;28;20051;-67
2023/03/20 04:58:25;;;;;;;29.63;15.20;;;9.70;99.90;;;9.92;90.04;101675.00;4994030;28;20506;-67
2023/03/20 05:00:53;;;;;;;30.13;16.08;;;9.70;99.90;;;9.85;90.00;101670.50;4994050;28;20411;-68
2023/03/20 05:03:22;;;;;;;28.30;15.23;;;9.60;99.90;;;9.84;90.44;101662.56;4993911;28;20058;-68
2023/03/20 05:05:51;;;;;;;26.75;15.68;;;9.60;99.90;;;9.85;90.58;101673.16;4993695;28;20109;-67
2023/03/20 05:08:20;;;;;;;25.13;15.15;;;9.60;99.90;;;9.84;90.54;101658.19;4993913;28;20042;-67
2023/03/20 05:10:53;;;;;;;28.63;14.90;;;9.60;99.90;;;9.86;90.51;101681.97;4993886;28;20145;-68
2023/03/20 05:13:58;;;;;;;27.63;16.17;;;9.60;99.90;;;9.90;90.36;101666.19;4973258;28;20050;-67
2023/03/20 05:16:44;;;;;;;29.98;15.25;;;9.70;99.90;;;9.77;90.51;101671.31;4990697;28;20140;-67
2023/03/20 05:19:23;;;;;;;27.20;15.05;;;9.50;99.90;;;9.80;91.13;101677.50;4993743;28;20081;-67
2023/03/20 05:22:09;;;;;;;30.10;16.02;;;9.50;99.90;;;9.85;90.88;101674.94;4993605;28;20046;-67
2023/03/20 05:24:40;;;;;;;32.13;15.23;;;9.60;99.90;;;9.87;90.98;101679.34;4994939;28;20054;-67
2023/03/20 05:27:22;;;;;;;29.23;16.10;;;9.60;99.90;;;9.91;90.91;101672.34;4994450;28;20046;-67
2023/03/20 05:30:14;;;;;;;28.80;15.50;;;9.60;99.90;;;9.88;91.05;101674.94;4994134;28;20416;-67
2023/03/20 05:33:00;;;;;;;33.25;16.25;;;9.60;99.90;;;9.91;91.06;101672.34;4994658;28;20527;-67
2023/03/20 05:35:29;;;;;;;34.13;15.82;;;9.60;99.90;;;9.85;90.86;101680.22;4994689;28;20419;-67
2023/03/20 05:38:08;;;;;;;30.13;15.38;;;9.60;99.90;;;9.88;90.78;101667.91;4993251;28;20043;-67
2023/03/20 05:40:58;;;;;;;30.60;15.35;;;9.60;99.90;;;9.83;90.90;101674.03;4994667;28;20124;-67
2023/03/20 05:43:53;;;;;;;33.60;15.30;;;9.60;99.90;;;9.86;90.67;101672.31;4993310;28;20050;-67
2023/03/20 05:46:45;;;;;;;28.42;14.43;;;9.60;99.90;;;9.85;90.90;101681.06;4991131;28;20058;-68
2023/03/20 05:49:34;;;;;;;27.15;15.45;;;9.60;99.90;;;9.92;91.05;101685.59;4973268;28;20137;-68
2023/03/20 05:52:21;;;;;;;32.88;15.27;;;9.60;99.90;;;9.87;90.60;101678.47;4994297;28;20057;-67
2023/03/20 05:55:06;;;;;;;27.13;14.50;;;9.60;99.90;;;9.85;90.65;101682.84;4992791;28;20500;-67
2023/03/20 05:57:54;;;;;;;29.75;14.52;;;9.60;99.90;;;9.77;90.53;101672.22;4993641;28;20050;-67
2023/03/20 06:00:37;;;;;;;29.60;13.90;;;9.60;99.90;;;9.87;90.59;101691.69;4993267;28;20062;-67
2023/03/20 06:03:42;;;;;;;29.33;14.77;;;9.60;99.90;;;9.86;90.80;101697.81;4993787;28;20078;-67
2023/03/20 06:06:16;;;;;;;25.08;12.70;;;9.60;99.90;;;9.71;90.24;101672.13;4992626;28;20046;-67
2023/03/20 06:08:49;;;;;;;26.77;14.27;;;9.60;99.90;;;9.87;90.26;101697.84;4994107;28;20045;-67
2023/03/20 06:11:18;;;;;;;30.83;13.68;;;9.60;99.90;;;9.88;90.50;101696.97;4992731;28;20500;-67
2023/03/20 06:13:46;;;;;;;28.95;13.48;;;9.60;99.90;;;9.92;90.30;101698.78;4992582;28;20035;-67
2023/03/20 06:16:15;;;;;;;20.23;11.93;;;9.60;99.90;;;9.92;90.04;101703.19;4992484;28;20133;-67
2023/03/20 06:18:45;;;;;;;26.83;12.60;;;9.70;99.90;;;9.91;89.95;101710.22;4992364;28;20054;-67
2023/03/20 06:21:14;;;;;;;26.20;12.75;;;9.60;99.90;;;9.88;89.69;101712.84;4992661;28;20054;-67
2023/03/20 06:23:42;;;;;;;26.05;12.45;;;9.70;99.90;;;9.90;89.47;101705.81;4992528;28;20054;-67
2023/03/20 06:26:11;;;;;;;28.60;13.30;;;9.70;99.90;;;9.85;89.80;101718.06;4992398;28;20504;-67
2023/03/20 06:28:56;;;;;;;28.00;13.02;;;9.60;99.90;;;9.86;89.77;101716.31;4992279;28;20563;-67
2023/03/20 06:31:25;;;;;;;27.27;12.90;;;9.60;99.90;;;9.84;89.68;101718.94;4992132;28;20508;-67
2023/03/20 06:33:55;;;;;;;28.58;13.60;;;9.60;99.90;;;9.82;90.18;101720.69;4992254;28;20050;-67
2023/03/20 06:36:24;;;;;;;27.85;12.18;;;9.50;99.90;;;9.83;89.93;101726.88;4992341;28;20060;-67
2023/03/20 06:38:59;;;;;;;24.80;12.63;;;9.60;99.90;;;9.85;89.55;101704.00;4991737;28;20508;-67
2023/03/20 06:41:28;;;;;;;27.88;12.18;;;9.60;99.90;;;9.84;89.65;101716.31;4991713;28;20050;-67
2023/03/20 06:44:06;;;;;;;27.05;12.45;;;9.60;99.90;;;9.82;89.28;101723.34;4992108;28;20050;-67
2023/03/20 06:47:01;;;;;;;26.77;11.63;;;9.50;99.90;;;9.86;89.52;101721.59;4992019;28;20089;-67
2023/03/20 06:49:30;;;;;;;21.63;11.60;;;9.60;99.90;;;9.79;89.65;101718.00;4992019;28;20459;-67
2023/03/20 06:51:59;;;;;;;30.47;12.40;;;9.60;99.90;;;9.88;89.90;101722.50;4993223;28;20050;-67
2023/03/20 06:54:27;;;;;;;24.58;11.15;;;9.60;99.90;;;9.90;89.53;101728.72;4991739;28;20054;-67
2023/03/20 06:56:56;;;;;;;20.63;11.02;;;9.60;99.90;;;9.94;89.45;101728.78;4992019;28;20050;-67
2023/03/20 06:59:25;;;;;;;24.80;10.63;;;9.60;99.90;;;9.97;89.07;101731.44;4993259;28;20077;-67
2023/03/20 07:01:57;;;;;;;26.60;11.68;;;9.70;99.90;;;9.92;88.96;101729.63;4991884;28;20435;-67
2023/03/20 07:04:26;;;;;;;20.70;10.52;;;9.70;99.90;;;9.94;88.91;101727.88;4991730;28;20061;-68
2023/03/20 07:07:00;;;;;;;20.15;10.52;;;9.70;99.90;;;9.88;89.17;101728.69;4991967;28;20519;-68
2023/03/20 07:09:28;;;;;;;25.77;10.77;;;9.60;99.90;;;9.94;89.05;101726.13;4992971;28;20039;-67
2023/03/20 07:11:57;;;;;;;23.40;10.27;;;9.70;99.90;;;10.00;89.13;101734.13;4991746;28;20073;-67
2023/03/20 07:14:26;;;;;;;22.17;10.52;;;9.70;99.90;;;9.98;89.36;101735.88;4991630;28;20105;-67
2023/03/20 07:16:58;;;;;;;24.85;9.40;;;9.70;99.90;;;10.04;89.53;101735.91;4991392;28;20049;-67
2023/03/20 07:19:27;;;;;;;23.58;10.32;;;9.70;99.90;;;9.95;89.29;101735.81;4991900;28;20136;-67
2023/03/20 07:22:02;;;;;;;25.10;10.25;;;9.70;99.90;;;9.95;89.90;101740.19;4991882;28;20043;-67
2023/03/20 07:24:38;;;;;;;22.85;10.80;;;9.70;99.90;;;10.02;89.85;101728.84;4993018;28;20050;-67
2023/03/20 07:27:07;;;;;;;25.83;11.30;;;9.70;99.90;;;10.02;89.96;101739.44;4992912;28;20540;-67
2023/03/20 07:29:36;;;;;;;23.83;11.00;;;9.80;99.90;;;10.00;90.39;101747.34;4992771;28;20471;-68
2023/03/20 07:32:11;;;;;;;26.38;10.68;;;9.70;99.90;;;9.61;90.26;101664.94;4991867;28;20053;-67
2023/03/20 07:34:48;;;;;;;28.48;9.82;;;9.80;99.90;;;9.98;91.09;101738.50;4991810;28;20049;-67
2023/03/20 07:37:20;;;;;;;22.48;9.90;;;9.80;99.90;;;9.97;91.30;101747.28;4991654;28;20054;-67
2023/03/20 07:40:01;;;;;;;23.17;10.07;;;9.70;99.90;;;9.99;91.62;101749.94;4991449;28;20056;-67
2023/03/20 07:42:35;;;;;;;21.63;10.20;;;9.80;99.90;;;9.99;91.60;101747.31;4991710;28;20488;-67
2023/03/20 07:45:12;;;;;;;23.48;11.00;;;9.70;99.90;;;10.03;91.84;101750.00;4991657;28;20050;-68
2023/03/20 07:47:45;;;;;;;21.98;9.85;;;9.80;99.90;;;9.95;91.96;101743.75;4991603;28;20058;-68
2023/03/20 07:50:14;;;;;;;26.38;10.13;;;9.70;99.90;;;9.99;92.33;101757.88;4991427;28;20512;-67
2023/03/20 07:52:48;;;;;;;22.70;10.38;;;9.70;99.90;;;9.99;92.55;101747.31;4996348;28;20484;-67
2023/03/20 07:55:16;;;;;;;24.15;10.63;;;9.70;99.90;;;9.98;92.84;101750.84;4996156;28;20053;-67
2023/03/20 07:57:48;;;;;;;25.38;11.15;;;9.70;99.90;;;9.93;93.29;101747.22;4995483;28;20062;-67
2023/03/20 08:00:28;;;;;;;21.58;10.20;;;9.70;99.90;;;10.07;93.63;101748.28;4996301;28;20042;-67
2023/03/20 08:02:57;;;;;;;27.65;10.38;;;9.80;99.90;;;10.00;93.64;101746.44;4996189;28;20042;-67
2023/03/20 08:05:26;;;;;;;18.83;9.73;;;9.80;99.90;;;10.02;93.60;101752.66;4996656;28;20066;-67
2023/03/20 08:07:56;;;;;;;25.20;10.35;;;9.80;99.90;;;9.94;93.80;101754.31;4996151;28;20049;-68
2023/03/20 08:10:24;;;;;;;24.88;10.00;;;9.70;99.90;;;9.97;94.06;101757.88;4996019;28;20522;-68
2023/03/20 08:12:53;;;;;;;19.58;10.10;;;9.70;99.90;;;9.98;94.27;101753.47;4996124;28;20517;-67
2023/03/20 08:15:22;;;;;;;21.85;10.43;;;9.70;99.90;;;9.91;94.50;101755.13;4995844;28;20492;-67
2023/03/20 08:17:50;;;;;;;26.00;10.43;;;9.70;99.90;;;9.89;94.58;101751.59;4996129;28;20395;-67
2023/03/20 08:20:20;;;;;;;17.92;9.63;;;9.70;99.90;;;9.87;94.44;101748.03;4995098;28;20054;-67
2023/03/20 08:22:49;;;;;;;24.42;10.50;;;9.70;99.90;;;9.91;95.03;101755.13;4996082;28;20068;-67
2023/03/20 08:25:19;;;;;;;20.77;9.57;;;9.70;99.90;;;9.84;94.87;101736.56;4996159;28;20054;-67
2023/03/20 08:27:48;;;;;;;25.85;9.80;;;9.60;99.90;;;9.90;95.30;101753.38;4995886;28;20491;-67
2023/03/20 08:30:17;;;;;;;23.50;10.30;;;9.70;99.90;;;9.74;95.87;101730.28;4995908;28;20503;-69
2023/03/20 08:32:45;;;;;;;21.92;9.82;;;9.60;99.90;;;9.78;96.07;101729.44;4995773;28;20476;-68
2023/03/20 08:35:14;;;;;;;24.70;10.95;;;9.60;99.90;;;9.88;96.27;101739.25;4995774;28;20092;-67
2023/03/20 08:38:00;;;;;;;23.30;10.75;;;9.60;99.90;;;9.83;96.50;101738.31;4995649;28;20046;-67
2023/03/20 08:40:32;;;;;;;23.27;10.80;;;9.60;99.90;;;9.73;96.71;101714.41;4995618;28;20092;-68
2023/03/20 08:43:04;;;;;;;25.77;11.68;;;9.60;99.90;;;9.85;97.07;101739.22;4995877;28;20038;-67
2023/03/20 08:45:34;;;;;;;20.83;11.93;;;9.60;99.90;;;9.91;97.13;101738.44;4996008;28;20046;-68
2023/03/20 08:48:03;;;;;;;25.92;11.10;;;9.60;99.90;;;9.91;97.34;101736.66;4995592;28;20046;-68
2023/03/20 08:50:32;;;;;;;24.20;11.70;;;9.70;99.90;;;9.91;97.28;101741.94;4995261;28;20579;-68
2023/03/20 08:53:00;;;;;;;25.67;12.20;;;9.70;99.90;;;9.95;97.23;101737.56;4995274;28;20562;-68
2023/03/20 08:55:30;;;;;;;25.73;11.48;;;9.70;99.90;;;9.75;96.85;101712.69;4994024;28;20054;-67
2023/03/20 08:57:59;;;;;;;22.13;11.77;;;9.70;99.90;;;9.87;97.04;101739.25;4995357;28;20116;-68
2023/03/20 09:00:28;;;;;;;19.17;10.88;;;9.70;99.90;;;9.95;97.19;101746.38;4995152;28;20559;-67
2023/03/20 09:02:56;;;;;;;24.73;12.18;;;9.70;99.90;;;10.00;97.67;101738.53;4993074;28;20058;-68
2023/03/20 09:05:25;;;;;;;25.92;12.98;;;9.80;99.90;;;9.97;97.19;101736.72;4995337;28;20415;-68
2023/03/20 09:07:53;;;;;;;25.30;13.45;;;9.80;99.90;;;10.02;97.37;101742.06;4995096;28;20077;-67
2023/03/20 09:10:22;;;;;;;24.73;13.02;;;9.80;99.90;;;10.00;97.67;101742.06;4995145;28;20546;-68
2023/03/20 09:12:52;;;;;;;28.98;12.95;;;9.80;99.90;;;9.87;97.87;101732.19;4995375;28;20069;-68
2023/03/20 09:15:20;;;;;;;25.45;14.20;;;9.70;99.90;;;9.90;97.92;101747.19;4993752;28;20060;-69
2023/03/20 09:17:48;;;;;;;25.67;13.25;;;9.60;99.90;;;10.01;98.25;101750.84;4993603;28;20137;-68
2023/03/20 09:20:17;;;;;;;26.92;13.25;;;9.80;99.90;;;10.04;98.33;101741.19;4994616;28;20045;-69
2023/03/20 09:22:45;;;;;;;27.88;14.60;;;9.80;99.90;;;9.41;98.43;101642.69;4994598;28;20130;-68
2023/03/20 09:25:14;;;;;;;29.83;14.85;;;9.80;99.90;;;10.07;98.96;101747.38;4994519;28;20039;-68
2023/03/20 09:27:42;;;;;;;27.50;13.80;;;9.80;99.90;;;10.10;99.13;101760.69;4994286;28;20042;-68
2023/03/20 09:30:14;;;;;;;36.55;15.52;;;9.80;99.90;;;10.14;98.52;101757.22;4994647;28;20116;-67
2023/03/20 09:32:42;;;;;;;30.50;14.27;;;9.90;99.90;;;10.23;98.33;101747.63;4994574;28;20042;-67
2023/03/20 09:35:11;;;;;;;28.80;14.80;;;10.00;99.90;;;10.15;98.18;101746.66;4994431;28;20046;-69
2023/03/20 09:37:39;;;;;;;30.45;16.65;;;10.00;99.90;;;10.19;98.58;101742.28;4993225;28;20045;-69
2023/03/20 09:40:11;;;;;;;34.42;16.15;;;10.00;99.90;;;10.13;98.49;101735.19;4994401;28;20377;-68
2023/03/20 09:42:50;;;;;;;30.27;16.45;;;9.90;99.90;;;10.12;98.34;101732.53;4994721;28;20057;-67
2023/03/20 09:45:31;;;;;;;30.92;17.40;;;9.90;99.90;;;10.29;98.95;101760.03;4994611;28;20121;-68
2023/03/20 09:48:06;;;;;;;36.05;17.50;;;10.00;99.90;;;10.23;98.70;101754.66;4993101;28;20492;-68
2023/03/20 09:50:39;;;;;;;31.83;17.35;;;10.00;99.90;;;10.31;98.41;101753.00;4994271;28;20039;-69
2023/03/20 09:53:13;;;;;;;34.67;17.70;;;10.10;99.90;;;10.26;98.27;101713.28;4994248;28;20085;-69
2023/03/20 09:55:44;;;;;;;34.55;17.30;;;10.20;99.90;;;10.19;97.91;101737.91;4993772;28;20141;-68
2023/03/20 09:58:18;;;;;;;35.92;17.77;;;10.00;99.90;;;10.17;98.40;101718.47;4994363;28;20133;-68
2023/03/20 10:00:48;;;;;;;33.55;19.38;;;10.10;99.90;;;10.33;98.40;101748.63;4994080;28;20042;-68
2023/03/20 10:03:21;;;;;;;33.30;18.83;;;10.10;99.90;;;10.26;98.12;101738.88;4992749;28;20141;-68
2023/03/20 10:05:57;;;;;;;34.45;19.00;;;10.10;99.90;;;10.29;98.82;101744.16;4993967;28;20057;-68
2023/03/20 10:08:30;;;;;;;32.90;19.00;;;10.10;99.90;;;10.16;98.21;101731.69;4993983;28;20074;-68
2023/03/20 10:11:15;;;;;;;33.88;18.80;;;10.00;99.90;;;10.32;99.07;101731.84;4993782;28;20050;-68
2023/03/20 10:13:59;;;;;;;35.30;19.80;;;10.10;99.90;;;10.31;99.22;101750.34;4993800;28;20554;-68
2023/03/20 10:16:45;;;;;;;38.45;19.10;;;10.10;99.90;;;10.32;98.80;101737.16;4992465;28;20050;-68
2023/03/20 10:19:23;;;;;;;39.85;19.15;;;10.10;99.90;;;10.30;98.65;101743.31;4993775;28;20124;-68
2023/03/20 10:21:59;;;;;;;29.15;19.45;;;10.10;99.90;;;10.35;99.00;101731.91;4993758;28;20104;-68
2023/03/20 10:24:31;;;;;;;34.85;19.10;;;10.10;99.90;;;10.27;98.75;101727.41;4993704;28;20112;-69
2023/03/20 10:27:06;;;;;;;31.83;18.88;;;10.10;99.90;;;10.27;99.30;101719.47;4993550;28;20042;-69
2023/03/20 10:29:49;;;;;;;39.33;20.45;;;10.00;99.90;;;10.31;99.70;101723.91;4992516;28;20504;-69
2023/03/20 10:32:26;;;;;;;36.17;18.70;;;10.10;99.90;;;10.42;99.67;101727.53;4993634;28;20039;-69
2023/03/20 10:35:08;;;;;;;38.35;19.80;;;10.20;99.90;;;10.34;99.74;101721.28;4992332;28;20057;-69
2023/03/20 10:37:54;;;;;;;35.28;20.17;;;10.20;99.90;;;10.32;99.54;101730.97;4993478;28;20113;-69